< < Back
Terminal Aerodrome Forecast


Current Version              Previous Versions:   1  2  3  4  5  6  7  8  9  

Terminal Aerodrome Forecast

935
FTUS42 KMLB 181141
TAFMCO
TAF
KMCO 181141Z 1812/1912 00000KT 6SM MIFG BR SCT002 BKN150
      TEMPO 1812/1814 3SM MIFG BR BKN003
     FM181400 24006KT P6SM SCT025 BKN250
     FM181800 28009KT P6SM VCTS SCT030CB SCT060 BKN250
     FM190000 20003KT P6SM SCT040 BKN100 OVC250
     FM190600 00000KT P6SM SCT100 BKN250=



Latest METAR

577
SAUS70 KWBC 182000 RRE
MTRMCO
METAR KMCO 181953Z 26010KT 10SM FEW042TCU SCT220 BKN300 31/22 A2993 RMK
AO2 SLP132 TCU N AND S T03110222


USA.gov is the U.S. government's official web portal to all federal, state and local government web resources and services.